Time;durP1;ratioP1;P1;durP2;ratioP2;P2;SDS_P1;SDS_P2;PMS_P1;PMS_P2;Temp;Humidity;BMP_temperature;BMP_pressure;BME280_temperature;BME280_humidity;BME280_pressure;Samples;Min_cycle;Max_cycle;Signal;HPM_P1;HPM_P2
2023/09/03 00:01:19;;;;;;;6.38;4.68;;;14.20;99.90;;;;;;4977017;28;20063;-93
2023/09/03 00:03:45;;;;;;;10.13;4.38;;;14.10;99.90;;;;;;4976957;28;20065;-91
2023/09/03 00:06:10;;;;;;;14.68;4.88;;;14.00;99.90;;;;;;4977656;28;20568;-91
2023/09/03 00:08:36;;;;;;;6.78;4.28;;;14.00;99.90;;;;;;4979193;28;20734;-91
2023/09/03 00:11:02;;;;;;;7.75;4.28;;;13.90;99.90;;;;;;4982904;28;20025;-92
2023/09/03 00:13:27;;;;;;;8.57;4.30;;;13.90;99.90;;;;;;4977398;28;20109;-91
2023/09/03 00:15:53;;;;;;;7.63;4.35;;;13.90;99.90;;;;;;4977312;28;21646;-90
2023/09/03 00:18:18;;;;;;;8.20;4.18;;;13.80;99.90;;;;;;4977712;28;20513;-92
2023/09/03 00:20:59;;;;;;;6.38;4.57;;;13.80;99.90;;;;;;4977749;28;20023;-92
2023/09/03 00:23:25;;;;;;;9.57;4.10;;;13.80;99.90;;;;;;4974812;28;20089;-93
2023/09/03 00:25:51;;;;;;;5.97;3.95;;;13.80;99.90;;;;;;4976482;28;20034;-91
2023/09/03 00:28:16;;;;;;;7.53;4.63;;;13.70;99.90;;;;;;4976817;28;20054;-92
2023/09/03 00:30:42;;;;;;;8.65;4.70;;;13.70;99.90;;;;;;4975979;28;20118;-91
2023/09/03 00:33:08;;;;;;;9.77;4.95;;;13.70;99.90;;;;;;4977260;28;20070;-90
2023/09/03 00:35:33;;;;;;;5.97;4.13;;;13.70;99.90;;;;;;4975971;28;20039;-91
2023/09/03 00:37:59;;;;;;;9.15;4.45;;;13.70;99.90;;;;;;4976561;28;20106;-92
2023/09/03 00:40:25;;;;;;;7.03;4.30;;;13.70;99.90;;;;;;4986578;28;20086;-91
2023/09/03 00:42:51;;;;;;;5.60;4.10;;;13.70;99.90;;;;;;4987240;28;20030;-90
2023/09/03 00:45:17;;;;;;;6.10;4.03;;;13.60;99.90;;;;;;4983792;28;20046;-91
2023/09/03 00:47:42;;;;;;;6.18;4.13;;;13.60;99.90;;;;;;4986329;28;20485;-91
2023/09/03 00:50:10;;;;;;;6.15;4.40;;;13.50;99.90;;;;;;4986683;28;20027;-91
2023/09/03 00:52:37;;;;;;;6.25;3.90;;;13.50;99.90;;;;;;4985607;28;20113;-91
2023/09/03 00:55:06;;;;;;;8.00;4.10;;;13.50;99.90;;;;;;4988330;28;20026;-90
2023/09/03 00:57:32;;;;;;;5.40;4.28;;;13.50;99.90;;;;;;4987195;28;20465;-92
2023/09/03 00:59:58;;;;;;;8.82;4.70;;;13.40;99.90;;;;;;4985989;28;20030;-90
2023/09/03 01:02:24;;;;;;;10.05;4.65;;;13.40;99.90;;;;;;4984246;28;20050;-91
2023/09/03 01:04:50;;;;;;;8.68;4.35;;;13.40;99.90;;;;;;4986866;28;20081;-90
2023/09/03 01:07:16;;;;;;;7.22;4.63;;;13.40;99.90;;;;;;4983983;28;20120;-91
2023/09/03 01:09:42;;;;;;;6.57;4.50;;;13.40;99.90;;;;;;4983603;28;20022;-90
2023/09/03 01:12:27;;;;;;;4.90;3.92;;;13.30;99.90;;;;;;4982778;28;20032;-90
2023/09/03 01:15:06;;;;;;;5.95;4.20;;;13.30;99.90;;;;;;4997736;28;20018;-90
2023/09/03 01:17:39;;;;;;;8.70;4.32;;;13.30;99.90;;;;;;4983760;28;20035;-93
2023/09/03 01:20:14;;;;;;;6.88;4.25;;;13.20;99.90;;;;;;4986361;28;20037;-92
2023/09/03 01:23:03;;;;;;;5.25;3.90;;;13.10;99.90;;;;;;4983169;28;20110;-92
2023/09/03 01:25:53;;;;;;;7.88;4.93;;;13.00;99.90;;;;;;4981906;28;20093;-92
2023/09/03 01:28:31;;;;;;;8.38;3.53;;;12.90;99.90;;;;;;4980548;28;20054;-91
2023/09/03 01:31:02;;;;;;;6.47;4.63;;;12.90;99.90;;;;;;4997673;28;20046;-91
2023/09/03 01:33:31;;;;;;;11.27;4.30;;;12.80;99.90;;;;;;4982862;28;20046;-92
2023/09/03 01:35:58;;;;;;;9.05;4.75;;;12.80;99.90;;;;;;4986866;28;20049;-91
2023/09/03 01:38:26;;;;;;;10.50;4.20;;;12.80;99.90;;;;;;4985997;28;20157;-92
2023/09/03 01:40:55;;;;;;;8.35;4.30;;;12.80;99.90;;;;;;4988140;28;20022;-91
2023/09/03 01:43:21;;;;;;;7.68;4.25;;;12.80;99.90;;;;;;4981885;28;20027;-91
2023/09/03 01:46:14;;;;;;;6.90;3.92;;;12.80;99.90;;;;;;4989075;28;20034;-92
2023/09/03 01:49:09;;;;;;;5.57;3.90;;;12.80;99.90;;;;;;4986548;28;20122;-93
2023/09/03 01:52:13;;;;;;;8.07;4.13;;;12.70;99.90;;;;;;5002112;28;20088;-91
2023/09/03 01:54:40;;;;;;;7.50;4.00;;;12.70;99.90;;;;;;5002740;28;20145;-92
2023/09/03 01:57:25;;;;;;;11.82;5.85;;;12.60;99.90;;;;;;5001415;28;20022;-90
2023/09/03 02:00:00;;;;;;;7.28;4.35;;;12.50;99.90;;;;;;5002427;28;20133;-92
2023/09/03 02:02:28;;;;;;;7.13;3.80;;;12.50;99.90;;;;;;4998795;28;20033;-92
2023/09/03 02:04:54;;;;;;;6.43;4.45;;;12.50;99.90;;;;;;4996602;28;20022;-90
2023/09/03 02:07:20;;;;;;;6.10;4.03;;;12.50;99.90;;;;;;4997295;28;20041;-90
2023/09/03 02:09:46;;;;;;;6.10;4.00;;;12.50;99.90;;;;;;4990435;28;20031;-90
2023/09/03 02:12:11;;;;;;;6.25;4.13;;;12.40;99.90;;;;;;4982404;28;20031;-91
2023/09/03 02:14:37;;;;;;;7.10;3.95;;;12.40;99.90;;;;;;4975207;28;20493;-91
2023/09/03 02:17:03;;;;;;;5.40;4.30;;;12.40;99.90;;;;;;4973890;28;20054;-90
2023/09/03 02:19:29;;;;;;;5.32;3.97;;;12.40;99.90;;;;;;4974903;28;20115;-91
2023/09/03 02:21:54;;;;;;;5.82;4.13;;;12.40;99.90;;;;;;4973887;28;20031;-91
2023/09/03 02:24:21;;;;;;;7.97;4.07;;;12.40;99.90;;;;;;4974704;28;20126;-92
2023/09/03 02:26:47;;;;;;;4.97;3.58;;;12.30;99.90;;;;;;4974321;28;20509;-91
2023/09/03 02:29:13;;;;;;;7.05;4.00;;;12.30;99.90;;;;;;4973764;28;20057;-92
2023/09/03 02:31:39;;;;;;;6.40;4.07;;;12.20;99.90;;;;;;4973117;28;20053;-89
2023/09/03 02:34:07;;;;;;;6.68;4.68;;;12.20;99.90;;;;;;4975195;28;20498;-91
2023/09/03 02:36:34;;;;;;;6.45;4.15;;;12.20;99.90;;;;;;4976032;28;20026;-90
2023/09/03 02:39:04;;;;;;;6.43;4.22;;;12.10;99.90;;;;;;4976158;28;20069;-90
2023/09/03 02:41:32;;;;;;;6.25;4.47;;;12.10;99.90;;;;;;4975703;28;20513;-90
2023/09/03 02:43:59;;;;;;;5.07;4.03;;;12.10;99.90;;;;;;4988257;28;20493;-90
2023/09/03 02:46:25;;;;;;;5.93;3.92;;;12.00;99.90;;;;;;4990084;28;20123;-90
2023/09/03 02:48:51;;;;;;;6.53;4.05;;;12.00;99.90;;;;;;4986700;28;20046;-88
2023/09/03 02:51:17;;;;;;;5.63;4.40;;;12.00;99.90;;;;;;4997042;28;20054;-88
2023/09/03 02:53:45;;;;;;;7.15;4.72;;;11.90;99.90;;;;;;4996664;28;20082;-88
2023/09/03 02:56:14;;;;;;;10.18;4.43;;;11.90;99.90;;;;;;4992591;28;20031;-89
2023/09/03 02:58:43;;;;;;;6.35;4.47;;;11.90;99.90;;;;;;4978221;28;20027;-90
2023/09/03 03:01:11;;;;;;;7.55;4.80;;;11.90;99.90;;;;;;4974806;28;20030;-89
2023/09/03 03:03:36;;;;;;;7.30;4.65;;;11.90;99.90;;;;;;4975645;28;20090;-88
2023/09/03 03:06:02;;;;;;;8.48;4.72;;;11.90;99.90;;;;;;4976291;28;20031;-88
2023/09/03 03:08:28;;;;;;;14.27;5.60;;;11.90;99.90;;;;;;4973970;28;20039;-89
2023/09/03 03:11:14;;;;;;;7.53;4.57;;;11.90;99.90;;;;;;4973515;28;20486;-91
2023/09/03 03:13:41;;;;;;;4.93;3.83;;;11.90;99.90;;;;;;4973824;28;20022;-90
2023/09/03 03:16:10;;;;;;;7.13;4.88;;;11.90;99.90;;;;;;4973503;28;20026;-89
2023/09/03 03:18:38;;;;;;;8.63;4.55;;;11.80;99.90;;;;;;4973247;28;20085;-89
2023/09/03 03:21:08;;;;;;;6.03;4.10;;;11.80;99.90;;;;;;4973265;28;20564;-90
2023/09/03 03:23:35;;;;;;;7.05;3.75;;;11.80;99.90;;;;;;4973507;28;20055;-88
2023/09/03 03:26:01;;;;;;;7.55;4.47;;;11.70;99.90;;;;;;4972567;28;20039;-89
2023/09/03 03:28:30;;;;;;;9.50;4.93;;;11.70;99.90;;;;;;4972282;28;20407;-91
2023/09/03 03:30:56;;;;;;;6.35;4.22;;;11.70;99.90;;;;;;4985120;28;20042;-92
2023/09/03 03:33:21;;;;;;;5.90;4.28;;;11.70;99.90;;;;;;4997002;28;20099;-91
2023/09/03 03:35:47;;;;;;;7.78;4.45;;;11.70;99.90;;;;;;4991321;28;20033;-92
2023/09/03 03:38:12;;;;;;;6.55;4.38;;;11.70;99.90;;;;;;4988454;28;20501;-93
2023/09/03 03:40:38;;;;;;;6.28;4.32;;;11.70;99.90;;;;;;4987847;28;20037;-92
2023/09/03 03:43:04;;;;;;;6.25;4.07;;;11.70;99.90;;;;;;4988265;28;20022;-89
2023/09/03 03:45:33;;;;;;;6.00;4.30;;;11.70;99.90;;;;;;4985014;28;20054;-88
2023/09/03 03:47:58;;;;;;;6.38;4.70;;;11.70;99.90;;;;;;4984882;28;20089;-90
2023/09/03 03:50:24;;;;;;;6.82;5.05;;;11.70;99.90;;;;;;4986346;28;20022;-88
2023/09/03 03:52:50;;;;;;;7.20;4.35;;;11.70;99.90;;;;;;4987275;28;20437;-90
2023/09/03 03:55:15;;;;;;;8.23;4.55;;;11.70;99.90;;;;;;4984488;28;20026;-91
2023/09/03 03:57:41;;;;;;;7.63;4.80;;;11.70;99.90;;;;;;4984567;28;20019;-87
2023/09/03 04:00:08;;;;;;;7.22;4.85;;;11.70;99.90;;;;;;4987500;28;20026;-90
2023/09/03 04:02:33;;;;;;;7.72;4.70;;;11.60;99.90;;;;;;4987409;28;20465;-91
2023/09/03 04:04:59;;;;;;;7.03;4.47;;;11.60;99.90;;;;;;4986771;28;20037;-90
2023/09/03 04:07:25;;;;;;;8.60;4.50;;;11.60;99.90;;;;;;4987782;28;20515;-91
2023/09/03 04:09:50;;;;;;;8.38;4.10;;;11.50;99.90;;;;;;4985646;28;20050;-91
2023/09/03 04:12:17;;;;;;;5.60;3.90;;;11.40;99.90;;;;;;4986163;28;20077;-89
2023/09/03 04:14:45;;;;;;;13.90;5.47;;;11.40;99.90;;;;;;4986183;28;20026;-90
2023/09/03 04:17:10;;;;;;;5.38;3.92;;;11.30;99.90;;;;;;4985581;28;20470;-89
2023/09/03 04:19:38;;;;;;;7.28;4.25;;;11.20;99.90;;;;;;4985769;28;20038;-91
2023/09/03 04:22:04;;;;;;;5.40;4.03;;;11.20;99.90;;;;;;4986812;28;20030;-89
2023/09/03 04:24:29;;;;;;;6.85;4.53;;;11.10;99.90;;;;;;4986473;28;20018;-91
2023/09/03 04:26:55;;;;;;;5.53;3.95;;;11.10;99.90;;;;;;4985526;28;20078;-90
2023/09/03 04:29:20;;;;;;;6.28;4.30;;;11.10;99.90;;;;;;4986964;28;20057;-91
2023/09/03 04:31:46;;;;;;;6.65;3.72;;;11.10;99.90;;;;;;4983461;28;20042;-90
2023/09/03 04:34:13;;;;;;;6.05;4.32;;;11.10;99.90;;;;;;4983553;28;20026;-91
2023/09/03 04:36:39;;;;;;;5.57;4.00;;;11.10;99.90;;;;;;4988278;28;20027;-90
2023/09/03 04:39:05;;;;;;;7.95;5.00;;;11.10;99.90;;;;;;4983907;28;20031;-89
2023/09/03 04:41:30;;;;;;;9.40;6.28;;;11.00;99.90;;;;;;4986132;28;20029;-91
2023/09/03 04:44:07;;;;;;;6.68;5.38;;;11.00;99.90;;;;;;4984694;28;20388;-91
2023/09/03 04:46:32;;;;;;;6.45;4.50;;;10.90;99.90;;;;;;4998781;28;20026;-90
2023/09/03 04:48:58;;;;;;;6.18;4.30;;;10.90;99.90;;;;;;4986280;28;20030;-91
2023/09/03 04:51:23;;;;;;;5.97;4.10;;;10.90;99.90;;;;;;4983744;28;20023;-90
2023/09/03 04:53:49;;;;;;;6.78;4.80;;;10.90;99.90;;;;;;4986564;28;20761;-89
2023/09/03 04:56:15;;;;;;;8.13;4.95;;;10.90;99.90;;;;;;4984550;28;20041;-90
2023/09/03 04:58:40;;;;;;;8.07;5.40;;;10.90;99.90;;;;;;4988620;28;20034;-90
2023/09/03 05:01:14;;;;;;;8.85;5.88;;;10.80;99.90;;;;;;4984317;28;20023;-90
2023/09/03 05:03:40;;;;;;;9.38;6.00;;;10.80;99.90;;;;;;4985340;28;20022;-90
2023/09/03 05:06:05;;;;;;;8.93;6.10;;;10.80;99.90;;;;;;4989122;28;20436;-90
2023/09/03 05:08:31;;;;;;;12.32;5.63;;;10.70;99.90;;;;;;4988526;28;20035;-88
2023/09/03 05:10:57;;;;;;;9.52;5.78;;;10.70;99.90;;;;;;4990326;28;20026;-89
2023/09/03 05:13:22;;;;;;;20.00;6.15;;;10.60;99.90;;;;;;4987700;28;20035;-91
2023/09/03 05:15:51;;;;;;;9.93;5.88;;;10.60;99.90;;;;;;4986205;28;20029;-90
2023/09/03 05:18:16;;;;;;;7.30;5.47;;;10.50;99.90;;;;;;4988050;28;20023;-90
2023/09/03 05:20:42;;;;;;;10.48;5.40;;;10.50;99.90;;;;;;4984178;28;20023;-90
2023/09/03 05:23:08;;;;;;;5.43;4.30;;;10.40;99.90;;;;;;4984050;28;20031;-91
2023/09/03 05:25:33;;;;;;;5.80;4.35;;;10.40;99.90;;;;;;4985292;28;20122;-90
2023/09/03 05:27:59;;;;;;;6.50;3.95;;;10.30;99.90;;;;;;4985378;28;20038;-90
2023/09/03 05:30:25;;;;;;;7.63;4.20;;;10.40;99.90;;;;;;4985266;28;20473;-89
2023/09/03 05:32:51;;;;;;;6.00;3.95;;;10.40;99.90;;;;;;4984159;28;20046;-89
2023/09/03 05:35:17;;;;;;;8.40;4.40;;;10.40;99.90;;;;;;4984713;28;20068;-91
2023/09/03 05:37:42;;;;;;;6.20;4.25;;;10.40;99.90;;;;;;4982849;28;20026;-91
2023/09/03 05:40:10;;;;;;;6.95;3.88;;;10.40;99.90;;;;;;4983196;28;20031;-92
2023/09/03 05:42:35;;;;;;;7.15;4.88;;;10.50;99.90;;;;;;4983548;28;20031;-90
2023/09/03 05:45:01;;;;;;;7.05;5.15;;;10.50;99.90;;;;;;4985786;28;20441;-90
2023/09/03 05:47:27;;;;;;;6.57;4.97;;;10.40;99.90;;;;;;4982429;28;20433;-90
2023/09/03 05:49:56;;;;;;;7.90;5.05;;;10.40;99.90;;;;;;4980000;28;20486;-91
2023/09/03 05:52:22;;;;;;;6.87;5.30;;;10.40;99.90;;;;;;4983839;28;20031;-90
2023/09/03 05:54:48;;;;;;;6.13;5.13;;;10.40;99.90;;;;;;4982671;28;20286;-92
2023/09/03 05:57:14;;;;;;;6.00;4.93;;;10.30;99.90;;;;;;4983629;28;20036;-91
2023/09/03 05:59:40;;;;;;;5.63;4.25;;;10.30;99.90;;;;;;4982300;28;20454;-91
2023/09/03 06:02:05;;;;;;;6.45;4.88;;;10.30;99.90;;;;;;4988229;28;20089;-88
2023/09/03 06:04:31;;;;;;;7.35;5.30;;;10.30;99.90;;;;;;4983135;28;20018;-91
2023/09/03 06:06:57;;;;;;;5.28;4.13;;;10.30;99.90;;;;;;4982151;28;20027;-91
2023/09/03 06:09:22;;;;;;;5.45;4.35;;;10.30;99.90;;;;;;4984636;28;20629;-91
2023/09/03 06:11:49;;;;;;;5.50;3.88;;;10.30;99.90;;;;;;4984533;28;20025;-90
2023/09/03 06:14:15;;;;;;;5.60;4.18;;;10.30;99.90;;;;;;4983042;28;20027;-88
2023/09/03 06:16:41;;;;;;;8.55;4.50;;;10.30;99.90;;;;;;4988586;28;20019;-90
2023/09/03 06:19:06;;;;;;;7.15;5.05;;;10.30;99.90;;;;;;4982980;28;20031;-89
2023/09/03 06:21:32;;;;;;;6.70;4.78;;;10.30;99.90;;;;;;4989886;28;20031;-91
2023/09/03 06:23:57;;;;;;;24.60;5.35;;;10.40;99.90;;;;;;4987857;28;20026;-91
2023/09/03 06:26:23;;;;;;;7.70;4.95;;;10.30;99.90;;;;;;4984638;28;20026;-90
2023/09/03 06:28:49;;;;;;;16.63;5.20;;;10.30;99.90;;;;;;4983920;28;20406;-89
2023/09/03 06:31:15;;;;;;;6.85;5.03;;;10.30;99.90;;;;;;4982910;28;20058;-90
2023/09/03 06:33:41;;;;;;;5.65;4.55;;;10.30;99.90;;;;;;4985217;28;20125;-88
2023/09/03 06:36:07;;;;;;;5.10;4.03;;;10.30;99.90;;;;;;4984424;28;20055;-91
2023/09/03 06:38:33;;;;;;;6.15;4.32;;;10.30;99.90;;;;;;4980328;28;20029;-92
2023/09/03 06:40:59;;;;;;;4.97;3.92;;;10.40;99.90;;;;;;4981448;28;20040;-91
2023/09/03 06:43:24;;;;;;;5.07;4.15;;;10.40;99.90;;;;;;4983679;28;20492;-90
2023/09/03 06:45:50;;;;;;;5.15;4.20;;;10.50;99.90;;;;;;4982007;28;20390;-91
2023/09/03 06:48:16;;;;;;;5.80;4.95;;;10.60;99.90;;;;;;4982803;28;20192;-91
2023/09/03 06:50:41;;;;;;;6.03;4.50;;;10.60;99.90;;;;;;4981016;28;20130;-90
2023/09/03 06:53:08;;;;;;;6.88;5.53;;;10.70;99.90;;;;;;4965578;28;20058;-90
2023/09/03 06:55:34;;;;;;;6.10;5.32;;;10.70;99.90;;;;;;4982672;28;20022;-90
2023/09/03 06:58:00;;;;;;;7.40;5.93;;;10.80;99.90;;;;;;4983264;28;20037;-89
2023/09/03 07:00:25;;;;;;;6.65;5.40;;;10.80;99.90;;;;;;4981516;28;20113;-91
2023/09/03 07:02:51;;;;;;;7.75;6.40;;;10.80;99.90;;;;;;4981568;28;20030;-90
2023/09/03 07:05:16;;;;;;;7.13;6.03;;;10.80;99.90;;;;;;4980699;28;20030;-91
2023/09/03 07:07:42;;;;;;;7.20;5.53;;;10.80;99.90;;;;;;4980747;28;20027;-91
2023/09/03 07:10:08;;;;;;;10.90;7.05;;;10.80;99.90;;;;;;4984660;28;20034;-89
2023/09/03 07:12:34;;;;;;;8.70;6.57;;;10.80;99.90;;;;;;4984520;28;20497;-90
2023/09/03 07:15:00;;;;;;;7.10;5.63;;;10.80;99.90;;;;;;4978943;28;20434;-89
2023/09/03 07:17:25;;;;;;;9.90;6.13;;;10.80;99.90;;;;;;4983605;28;20101;-90
2023/09/03 07:19:55;;;;;;;8.45;5.78;;;10.80;99.90;;;;;;4982455;28;20029;-91
2023/09/03 07:22:20;;;;;;;7.55;5.95;;;10.80;99.90;;;;;;4981545;28;20031;-90
2023/09/03 07:24:46;;;;;;;9.43;6.38;;;10.80;99.90;;;;;;4983800;28;20030;-89
2023/09/03 07:27:12;;;;;;;7.93;6.18;;;10.80;99.90;;;;;;4985654;28;20029;-89
2023/09/03 07:29:37;;;;;;;8.98;5.78;;;10.90;99.90;;;;;;4983528;28;20129;-90
2023/09/03 07:32:03;;;;;;;8.73;6.38;;;10.90;99.90;;;;;;4983063;28;20043;-90
2023/09/03 07:34:29;;;;;;;7.25;5.57;;;11.00;99.90;;;;;;4975987;28;20133;-88
2023/09/03 07:36:54;;;;;;;7.60;5.82;;;11.10;99.90;;;;;;4982250;28;20106;-90
2023/09/03 07:39:20;;;;;;;8.70;5.57;;;11.20;99.90;;;;;;4983534;28;20138;-91
2023/09/03 07:41:46;;;;;;;10.32;5.80;;;11.20;99.90;;;;;;4980911;28;20402;-90
2023/09/03 07:44:11;;;;;;;6.95;5.50;;;11.30;99.90;;;;;;4982460;28;20040;-88
2023/09/03 07:46:37;;;;;;;7.65;5.28;;;11.50;99.90;;;;;;4982375;28;20019;-90
2023/09/03 07:49:03;;;;;;;8.68;6.28;;;11.50;99.90;;;;;;4981073;28;20117;-89
2023/09/03 07:51:28;;;;;;;10.65;5.80;;;11.60;99.90;;;;;;4980478;28;20026;-90
2023/09/03 07:53:54;;;;;;;7.20;5.38;;;11.70;99.90;;;;;;4982025;28;20113;-89
2023/09/03 07:56:20;;;;;;;7.43;5.50;;;11.80;99.90;;;;;;4980419;28;20026;-91
2023/09/03 07:58:46;;;;;;;7.72;5.30;;;11.90;99.90;;;;;;4982642;28;20540;-90
2023/09/03 08:01:14;;;;;;;7.78;5.65;;;11.90;99.90;;;;;;4980431;28;20022;-90
2023/09/03 08:03:42;;;;;;;7.40;5.60;;;12.00;99.90;;;;;;4982404;28;20026;-90
2023/09/03 08:06:08;;;;;;;9.30;5.88;;;12.10;99.90;;;;;;4983127;28;20023;-90
2023/09/03 08:08:34;;;;;;;8.32;5.68;;;12.10;99.90;;;;;;4979550;28;20031;-89
2023/09/03 08:11:00;;;;;;;6.78;5.32;;;12.20;99.90;;;;;;4986742;28;20022;-91
2023/09/03 08:13:26;;;;;;;7.90;5.35;;;12.30;99.90;;;;;;4983632;28;20034;-89
2023/09/03 08:15:52;;;;;;;8.80;5.78;;;12.30;99.90;;;;;;4992253;28;20029;-88
2023/09/03 08:18:18;;;;;;;8.13;5.75;;;12.40;99.90;;;;;;4994155;28;20485;-89
2023/09/03 08:20:44;;;;;;;8.90;6.28;;;12.40;99.90;;;;;;4993282;28;20023;-90
2023/09/03 08:23:13;;;;;;;10.65;5.72;;;12.50;99.90;;;;;;4990092;28;20118;-88
2023/09/03 08:25:40;;;;;;;12.40;6.30;;;12.60;99.90;;;;;;4983791;28;20019;-89
2023/09/03 08:28:09;;;;;;;7.93;5.85;;;12.60;99.90;;;;;;4991595;28;20117;-89
2023/09/03 08:30:35;;;;;;;8.77;6.03;;;12.80;99.90;;;;;;4988069;28;20117;-89
2023/09/03 08:33:00;;;;;;;8.45;5.97;;;12.90;99.90;;;;;;4994804;28;20089;-89
2023/09/03 08:35:28;;;;;;;13.55;6.07;;;13.00;99.90;;;;;;4996894;28;20027;-89
2023/09/03 08:37:54;;;;;;;8.57;6.15;;;13.10;99.90;;;;;;4995708;28;20117;-89
2023/09/03 08:40:20;;;;;;;11.02;6.35;;;13.20;99.90;;;;;;4993394;28;20508;-88
2023/09/03 08:42:47;;;;;;;8.75;5.82;;;13.30;99.90;;;;;;4976387;28;20031;-89
2023/09/03 08:45:16;;;;;;;9.25;5.85;;;13.40;99.90;;;;;;4981991;28;20042;-89
2023/09/03 08:47:44;;;;;;;11.98;6.35;;;13.60;99.90;;;;;;4984696;28;20108;-88
2023/09/03 08:50:13;;;;;;;11.10;5.93;;;13.70;99.90;;;;;;4992269;28;20034;-91
2023/09/03 08:52:41;;;;;;;11.38;5.80;;;13.90;99.90;;;;;;4995099;28;20023;-90
2023/09/03 08:55:08;;;;;;;10.27;5.90;;;14.00;99.90;;;;;;4990038;28;20027;-89
2023/09/03 08:57:34;;;;;;;9.65;5.72;;;14.20;99.90;;;;;;4976119;28;20037;-91
2023/09/03 09:00:02;;;;;;;8.70;5.40;;;14.40;99.90;;;;;;4974898;28;20026;-90
2023/09/03 09:02:29;;;;;;;7.85;5.60;;;14.60;99.90;;;;;;4975455;28;20027;-91
2023/09/03 09:04:55;;;;;;;8.52;5.45;;;14.80;99.90;;;;;;4976226;28;20046;-92
2023/09/03 09:07:22;;;;;;;9.50;5.95;;;15.00;99.90;;;;;;4976063;28;20022;-92
2023/09/03 09:09:50;;;;;;;9.25;5.63;;;15.20;99.90;;;;;;4975443;28;20046;-90
2023/09/03 09:12:27;;;;;;;8.02;5.65;;;15.40;99.90;;;;;;4975851;28;20481;-92
2023/09/03 09:15:04;;;;;;;7.97;5.70;;;15.60;99.90;;;;;;4976056;28;20138;-92
2023/09/03 09:17:40;;;;;;;8.43;5.15;;;15.80;99.90;;;;;;4975223;28;20073;-91
2023/09/03 09:20:07;;;;;;;8.02;5.00;;;16.10;99.90;;;;;;4973687;28;20521;-90
2023/09/03 09:22:47;;;;;;;8.85;5.53;;;16.30;99.90;;;;;;4975222;28;20042;-91
2023/09/03 09:25:19;;;;;;;7.63;4.97;;;16.60;99.90;;;;;;4972009;28;20055;-90
2023/09/03 09:27:44;;;;;;;6.70;4.85;;;16.90;99.90;;;;;;4971952;28;20061;-90
2023/09/03 09:30:16;;;;;;;9.15;4.93;;;17.20;99.90;;;;;;4975128;28;20058;-90
2023/09/03 09:32:43;;;;;;;6.57;4.95;;;17.50;99.90;;;;;;4985354;28;20070;-90
2023/09/03 09:35:09;;;;;;;8.90;5.45;;;17.80;99.90;;;;;;4975257;28;20089;-91
2023/09/03 09:37:40;;;;;;;8.40;4.90;;;18.10;99.90;;;;;;4975272;28;20120;-92
2023/09/03 09:40:10;;;;;;;9.25;5.47;;;18.40;99.90;;;;;;4989333;28;20038;-92
2023/09/03 09:42:51;;;;;;;6.75;4.93;;;18.70;99.90;;;;;;4974725;28;20027;-91
2023/09/03 09:45:17;;;;;;;6.72;5.43;;;19.10;99.90;;;;;;4974912;28;20031;-92
2023/09/03 09:47:42;;;;;;;8.77;4.75;;;19.40;99.90;;;;;;4974806;28;20023;-92
2023/09/03 09:50:08;;;;;;;7.32;4.88;;;19.60;99.90;;;;;;4974795;28;20031;-91
2023/09/03 09:52:35;;;;;;;8.45;5.03;;;19.90;99.90;;;;;;4974304;28;20074;-91
2023/09/03 09:55:01;;;;;;;10.80;5.00;;;20.20;99.90;;;;;;4974441;28;20026;-90
2023/09/03 09:57:27;;;;;;;11.32;5.85;;;20.50;99.90;;;;;;4976568;28;20052;-92
2023/09/03 10:00:04;;;;;;;10.85;5.28;;;20.80;99.90;;;;;;4975136;28;20066;-91
2023/09/03 10:02:30;;;;;;;15.25;5.18;;;21.10;99.90;;;;;;4984030;28;20098;-91
2023/09/03 10:04:56;;;;;;;6.50;3.85;;;21.40;99.90;;;;;;4980374;28;20098;-91
2023/09/03 10:07:22;;;;;;;7.63;4.80;;;21.70;99.90;;;;;;4981370;28;20039;-92
2023/09/03 10:09:48;;;;;;;10.05;4.63;;;21.90;99.90;;;;;;4979290;28;20039;-90
2023/09/03 10:12:14;;;;;;;5.95;4.40;;;22.10;99.90;;;;;;4975509;28;20026;-92
2023/09/03 10:14:40;;;;;;;10.15;4.07;;;22.30;99.90;;;;;;4975264;28;20064;-90
2023/09/03 10:17:07;;;;;;;6.50;4.57;;;22.50;99.90;;;;;;4974448;28;20026;-91
2023/09/03 10:19:40;;;;;;;8.10;4.20;;;22.80;99.90;;;;;;4974967;28;20474;-92
2023/09/03 10:22:09;;;;;;;6.28;3.85;;;22.90;99.90;;;;;;4974614;28;20031;-91
2023/09/03 10:24:36;;;;;;;7.63;3.72;;;23.20;99.90;;;;;;4974669;28;20061;-90
2023/09/03 10:27:05;;;;;;;6.75;3.38;;;23.30;99.90;;;;;;4974304;28;20027;-90
2023/09/03 10:29:34;;;;;;;3.58;2.63;;;23.50;99.30;;;;;;4974727;28;20062;-90
2023/09/03 10:32:02;;;;;;;5.85;2.90;;;23.70;97.70;;;;;;4974451;28;20054;-91
2023/09/03 10:34:30;;;;;;;6.18;2.55;;;23.80;96.60;;;;;;4976419;28;20061;-89
2023/09/03 10:37:09;;;;;;;4.22;2.90;;;23.90;95.80;;;;;;4979841;28;20050;-90
2023/09/03 10:39:35;;;;;;;4.43;2.63;;;24.10;94.70;;;;;;4973907;28;20031;-90
2023/09/03 10:42:26;;;;;;;4.00;2.92;;;24.30;93.90;;;;;;4973742;28;20046;-86
2023/09/03 10:44:53;;;;;;;4.18;2.70;;;24.50;92.90;;;;;;4973405;28;20039;-89
2023/09/03 10:47:19;;;;;;;2.42;2.22;;;24.70;92.20;;;;;;4973693;28;20050;-90
2023/09/03 10:49:49;;;;;;;3.63;2.25;;;24.80;90.80;;;;;;4974731;28;20034;-89
2023/09/03 10:52:39;;;;;;;5.05;1.92;;;25.00;90.20;;;;;;4973016;28;20237;-90
2023/09/03 10:55:20;;;;;;;3.63;1.80;;;25.20;88.60;;;;;;4973692;28;20102;-90
2023/09/03 10:58:16;;;;;;;6.07;2.70;;;25.30;86.20;;;;;;4973813;28;20365;-90
2023/09/03 11:01:34;;;;;;;3.58;2.60;;;25.40;84.20;;;;;;4973778;28;20031;-91
2023/09/03 11:04:01;;;;;;;2.55;1.92;;;25.50;82.90;;;;;;4962178;28;20046;-89
2023/09/03 11:06:31;;;;;;;3.03;2.13;;;25.40;79.30;;;;;;4972781;28;20035;-89
2023/09/03 11:08:59;;;;;;;2.27;1.80;;;25.30;79.40;;;;;;4974527;28;20042;-89
2023/09/03 11:11:30;;;;;;;4.60;2.35;;;25.40;78.40;;;;;;4972636;28;20414;-91
2023/09/03 11:13:57;;;;;;;2.72;2.35;;;25.60;78.20;;;;;;4953730;28;20042;-92
2023/09/03 11:16:30;;;;;;;3.40;2.20;;;25.70;77.20;;;;;;4955031;28;20030;-93
2023/09/03 11:18:56;;;;;;;2.97;2.25;;;25.90;75.80;;;;;;4969531;28;20495;-91
2023/09/03 11:21:26;;;;;;;4.85;2.80;;;25.80;74.40;;;;;;4973630;28;20031;-91
2023/09/03 11:24:05;;;;;;;;;;;26.00;74.70;;;;;;4974858;28;20027;-90
2023/09/03 11:26:34;;;;;;;3.53;2.30;;;26.10;74.70;;;;;;4973339;28;19933;-90
2023/09/03 11:29:01;;;;;;;7.18;2.65;;;26.30;74.60;;;;;;4980775;28;20482;-90
2023/09/03 11:31:28;;;;;;;3.83;2.33;;;26.50;75.10;;;;;;4980414;28;20047;-90
2023/09/03 11:33:56;;;;;;;4.05;2.55;;;26.80;73.40;;;;;;4981032;28;20038;-90
2023/09/03 11:36:24;;;;;;;3.00;2.13;;;27.00;72.80;;;;;;4979328;28;20023;-89
2023/09/03 11:38:55;;;;;;;3.72;2.80;;;27.20;71.30;;;;;;4977631;28;20027;-89
2023/09/03 11:41:21;;;;;;;5.50;2.60;;;27.40;70.40;;;;;;4975644;28;20023;-89
2023/09/03 11:43:47;;;;;;;4.00;2.35;;;27.50;68.90;;;;;;4974923;28;20026;-89
2023/09/03 11:46:15;;;;;;;3.25;2.45;;;27.70;69.10;;;;;;4973531;28;20023;-91
2023/09/03 11:48:50;;;;;;;2.75;2.00;;;27.90;68.40;;;;;;4973069;28;20113;-88
2023/09/03 11:51:28;;;;;;;5.43;2.30;;;27.90;67.90;;;;;;4975086;28;20108;-90
2023/09/03 11:53:54;;;;;;;2.78;2.28;;;28.10;67.50;;;;;;4976830;28;20077;-90
2023/09/03 11:56:21;;;;;;;2.80;2.30;;;28.20;67.20;;;;;;4976787;28;21503;-91
2023/09/03 11:58:51;;;;;;;5.32;2.67;;;28.50;66.50;;;;;;4974892;28;20027;-91
2023/09/03 12:01:17;;;;;;;4.43;3.30;;;28.60;65.70;;;;;;4976641;28;20035;-91
2023/09/03 12:03:43;;;;;;;4.95;2.83;;;28.70;65.30;;;;;;4976551;28;20015;-89
2023/09/03 12:06:09;;;;;;;3.90;2.42;;;28.80;64.80;;;;;;4976942;28;20027;-90
2023/09/03 12:08:34;;;;;;;4.57;2.53;;;29.00;64.00;;;;;;4976903;28;20142;-89
2023/09/03 12:11:00;;;;;;;3.08;2.25;;;29.10;63.00;;;;;;4976624;28;20037;-90
2023/09/03 12:13:31;;;;;;;5.07;2.40;;;29.20;62.70;;;;;;4976310;28;20039;-89
2023/09/03 12:16:05;;;;;;;2.58;2.10;;;29.30;62.20;;;;;;4991313;28;20474;-91
2023/09/03 12:18:32;;;;;;;2.30;2.10;;;29.30;61.60;;;;;;4976380;28;20034;-90
2023/09/03 12:20:58;;;;;;;2.95;2.40;;;29.50;61.70;;;;;;4976857;28;20110;-90
2023/09/03 12:23:24;;;;;;;3.03;2.30;;;29.50;61.10;;;;;;4977615;28;20098;-92
2023/09/03 12:25:50;;;;;;;3.85;2.50;;;29.70;60.70;;;;;;4976367;28;20077;-89
2023/09/03 12:28:15;;;;;;;3.33;2.22;;;29.50;59.70;;;;;;4976305;28;20090;-90
2023/09/03 12:30:56;;;;;;;5.90;2.72;;;29.50;59.90;;;;;;4977708;28;20381;-90
2023/09/03 12:33:34;;;;;;;3.38;2.35;;;29.40;59.30;;;;;;4991419;28;20038;-90
2023/09/03 12:36:13;;;;;;;2.90;2.40;;;29.30;59.70;;;;;;4991445;28;20081;-90
2023/09/03 12:38:58;;;;;;;3.38;2.60;;;29.30;60.20;;;;;;4977720;28;20042;-91
2023/09/03 12:41:30;;;;;;;6.20;2.25;;;29.40;59.50;;;;;;4996301;28;20046;-90
2023/09/03 12:44:03;;;;;;;3.40;2.53;;;29.30;59.50;;;;;;4978616;28;20034;-90
2023/09/03 12:46:29;;;;;;;4.75;2.70;;;29.40;59.60;;;;;;4976376;28;20109;-92
2023/09/03 12:48:55;;;;;;;4.25;2.70;;;29.40;59.10;;;;;;4976704;28;20051;-91
2023/09/03 12:51:20;;;;;;;3.55;2.78;;;29.50;59.00;;;;;;4976368;28;20023;-92